Terminal Aerodrome Forecast
Issued by NWS

Home | Current Version | Previous Version | Text Only | Print | Product List | Glossary On
Versions: 1 2 3 4 5 6 7 8 9 10 11 12 13 14 15 16 17
222
FTUS42 KTAE 241310 AAB
TAFVLD
TAF AMD
KVLD 241310Z 2413/2512 03003KT P6SM SKC
     FM241400 07009KT P6SM SCT250=

USA.gov is the U.S. government's official web portal to all federal, state and local government web resources and services.